createdAt,value
2023-08-08T00:02:36.907Z,99736.00
2023-08-08T00:07:39.200Z,99790.50
2023-08-08T00:12:41.644Z,99831.22
2023-08-08T00:17:44.046Z,99782.81
2023-08-08T00:22:46.439Z,99788.63
2023-08-08T00:27:48.851Z,99821.09
2023-08-08T00:32:51.180Z,99836.22
2023-08-08T00:37:53.380Z,99795.84
2023-08-08T00:42:55.709Z,99719.66
2023-08-08T00:47:58.054Z,99844.66
2023-08-08T00:53:00.575Z,99767.63
2023-08-08T00:58:02.866Z,99758.06
2023-08-08T01:03:05.484Z,99775.19
2023-08-08T01:08:09.330Z,99840.00
2023-08-08T01:13:19.601Z,99742.69
2023-08-08T01:18:22.132Z,99764.31
2023-08-08T01:23:33.368Z,99822.72
2023-08-08T01:28:36.235Z,99815.75
2023-08-08T01:33:38.949Z,99835.34
2023-08-08T01:38:48.332Z,99876.06
2023-08-08T01:43:51.230Z,99831.75
2023-08-08T01:48:53.630Z,99785.22
2023-08-08T01:53:55.988Z,99780.63
2023-08-08T01:58:58.340Z,99881.41
2023-08-08T02:04:00.568Z,99841.19
2023-08-08T02:09:02.903Z,99821.56
2023-08-08T02:14:05.332Z,99863.47
2023-08-08T02:19:07.762Z,99782.66
2023-08-08T02:24:10.169Z,99829.56
2023-08-08T02:29:12.480Z,99798.44
2023-08-08T02:34:14.685Z,99762.53
2023-08-08T02:39:17.108Z,99773.13
2023-08-08T02:44:21.173Z,99828.88
2023-08-08T02:49:23.594Z,99855.91
2023-08-08T02:54:25.866Z,99894.06
2023-08-08T02:59:28.940Z,99867.88
2023-08-08T03:04:31.555Z,99928.38
2023-08-08T03:09:33.863Z,99872.13
2023-08-08T03:14:36.260Z,99854.19
2023-08-08T03:19:38.625Z,99865.16
2023-08-08T03:24:40.908Z,99843.13
2023-08-08T03:29:43.331Z,99908.34
2023-08-08T03:34:45.626Z,99870.94
2023-08-08T03:39:48.382Z,99869.06
2023-08-08T03:44:51.008Z,99953.53
2023-08-08T03:49:56.869Z,99895.25
2023-08-08T03:54:59.179Z,99888.44
2023-08-08T04:00:01.887Z,99965.31
2023-08-08T04:05:04.458Z,99961.31
2023-08-08T04:10:07.460Z,99887.91
2023-08-08T04:15:10.908Z,99978.22
2023-08-08T04:20:14.087Z,99936.66
2023-08-08T04:25:17.045Z,99915.69
2023-08-08T04:30:19.858Z,99978.75
2023-08-08T04:35:22.403Z,99930.47
2023-08-08T04:40:28.960Z,100005.03
2023-08-08T04:45:31.463Z,99982.16
2023-08-08T04:50:33.921Z,99988.22
2023-08-08T04:55:36.813Z,99991.78
2023-08-08T05:00:39.385Z,100035.47
2023-08-08T05:05:41.748Z,99951.22
2023-08-08T05:10:44.111Z,99993.63
2023-08-08T05:15:46.681Z,99962.84
2023-08-08T05:20:48.910Z,99998.78
2023-08-08T05:25:51.227Z,100038.84
2023-08-08T05:30:53.553Z,100008.88
2023-08-08T05:35:55.892Z,100064.88
2023-08-08T05:40:58.150Z,99993.09
2023-08-08T05:46:00.745Z,100120.69
2023-08-08T05:51:06.343Z,100098.00
2023-08-08T05:56:10.261Z,100082.47
2023-08-08T06:01:13.304Z,100057.63
2023-08-08T06:06:16.209Z,100053.00
2023-08-08T06:11:18.466Z,100049.41
2023-08-08T06:16:21.748Z,100078.44
2023-08-08T06:21:24.046Z,100055.06
2023-08-08T06:26:26.677Z,100112.28
2023-08-08T06:31:29.296Z,100028.06
2023-08-08T06:36:31.464Z,100149.50
2023-08-08T06:41:34.148Z,100127.66
2023-08-08T06:46:36.514Z,100126.94
2023-08-08T06:51:39.423Z,100149.22
2023-08-08T06:56:41.815Z,100080.97
2023-08-08T07:01:44.398Z,100160.38
2023-08-08T07:06:46.972Z,100085.81
2023-08-08T07:11:49.446Z,100122.81
2023-08-08T07:16:51.776Z,100169.94
2023-08-08T07:21:53.959Z,100129.06
2023-08-08T07:26:58.012Z,100107.16
2023-08-08T07:32:04.524Z,100105.56
2023-08-08T07:37:06.989Z,100131.81
2023-08-08T07:42:09.239Z,100157.19
2023-08-08T07:47:13.508Z,100181.81
2023-08-08T07:52:16.028Z,100165.41
2023-08-08T07:57:18.353Z,100149.09
2023-08-08T08:02:20.757Z,100139.72
2023-08-08T08:07:23.499Z,100183.19
2023-08-08T08:12:25.789Z,100171.31
2023-08-08T08:17:29.503Z,100178.47
2023-08-08T08:22:31.745Z,100157.16
2023-08-08T08:27:33.898Z,100148.22
2023-08-08T08:32:36.533Z,100161.88
2023-08-08T08:37:38.684Z,100183.50
2023-08-08T08:42:45.125Z,100163.50
2023-08-08T08:47:49.811Z,100172.09
2023-08-08T08:52:52.363Z,100170.13
2023-08-08T08:57:56.019Z,100172.53
2023-08-08T09:02:58.454Z,100154.59
2023-08-08T09:08:01.741Z,100165.00
2023-08-08T09:13:06.799Z,100136.78
2023-08-08T09:18:09.331Z,100156.97
2023-08-08T09:23:11.556Z,100138.97
2023-08-08T09:28:14.216Z,100167.78
2023-08-08T09:33:16.448Z,100159.47
2023-08-08T09:38:19.061Z,100164.88
2023-08-08T09:43:22.007Z,100180.31
2023-08-08T09:48:25.077Z,100171.22
2023-08-08T09:53:31.973Z,100169.94
2023-08-08T09:58:34.767Z,100171.53
2023-08-08T10:03:39.385Z,100170.19
2023-08-08T10:08:42.297Z,100140.13
2023-08-08T10:13:51.980Z,100152.66
2023-08-08T10:19:00.099Z,100172.47
2023-08-08T10:24:12.326Z,100156.59
2023-08-08T10:29:20.412Z,100158.72
2023-08-08T10:34:25.541Z,100138.22
2023-08-08T10:39:27.827Z,100152.81
2023-08-08T10:44:30.146Z,100126.53
2023-08-08T10:49:32.830Z,100145.50
2023-08-08T10:54:35.519Z,100122.38
2023-08-08T10:59:39.255Z,100138.59
2023-08-08T11:04:42.832Z,100124.00
2023-08-08T11:09:45.447Z,100122.13
2023-08-08T11:14:47.619Z,100107.53
2023-08-08T11:19:50.074Z,100102.88
2023-08-08T11:24:53.352Z,100083.47
2023-08-08T11:29:59.474Z,100116.00
2023-08-08T11:35:02.394Z,100129.34
2023-08-08T11:40:06.634Z,100102.19
2023-08-08T11:45:11.114Z,100111.63
2023-08-08T11:50:14.022Z,100111.28
2023-08-08T11:55:17.079Z,100115.97
2023-08-08T12:00:19.539Z,100118.84
2023-08-08T12:05:23.846Z,100109.84
2023-08-08T12:10:26.788Z,100110.00
2023-08-08T12:15:33.936Z,100101.19
2023-08-08T12:20:36.141Z,100120.38
2023-08-08T12:25:38.960Z,100110.91
2023-08-08T12:30:41.188Z,100102.97
2023-08-08T12:35:43.384Z,100116.16
2023-08-08T12:40:46.076Z,100107.38
2023-08-08T12:45:49.260Z,100097.97
2023-08-08T12:50:51.485Z,100113.69
2023-08-08T12:55:53.751Z,100102.56
2023-08-08T13:00:56.038Z,100091.44
2023-08-08T13:05:58.209Z,100110.63
2023-08-08T13:11:00.399Z,100066.84
2023-08-08T13:16:02.761Z,100092.31
2023-08-08T13:21:06.766Z,100103.69
2023-08-08T13:26:09.107Z,100098.78
2023-08-08T13:31:11.627Z,100099.84
2023-08-08T13:36:13.953Z,100101.19
2023-08-08T13:41:16.109Z,100109.31
2023-08-08T13:46:18.412Z,100112.09
2023-08-08T13:51:20.698Z,100113.06
2023-08-08T13:56:23.557Z,100106.47
2023-08-08T14:01:25.867Z,100110.66
2023-08-08T14:06:28.661Z,100097.16
2023-08-08T14:11:30.847Z,100106.69
2023-08-08T14:16:34.004Z,100127.75
2023-08-08T14:21:36.344Z,100121.09
2023-08-08T14:26:38.658Z,100118.91
2023-08-08T14:32:01.433Z,100130.16
2023-08-08T14:37:03.351Z,100116.34
2023-08-08T14:42:05.730Z,100116.72
2023-08-08T14:47:08.131Z,100116.44
2023-08-08T14:52:10.772Z,100103.91
2023-08-08T14:57:13.009Z,100123.13
2023-08-08T15:02:15.546Z,100131.88
2023-08-08T15:07:18.018Z,100144.09
2023-08-08T15:12:20.350Z,100141.91
2023-08-08T15:17:22.605Z,100149.69
2023-08-08T15:22:24.957Z,100141.94
2023-08-08T15:27:27.168Z,100128.81
2023-08-08T15:32:29.463Z,100134.28
2023-08-08T15:37:31.729Z,100121.56
2023-08-08T15:42:34.237Z,100126.47
2023-08-08T15:47:36.602Z,100134.69
2023-08-08T15:52:38.984Z,100124.97
2023-08-08T15:57:41.276Z,100123.03
2023-08-08T16:02:43.922Z,100149.16
2023-08-08T16:07:46.383Z,100149.34
2023-08-08T16:12:48.648Z,100153.81
2023-08-08T16:17:50.909Z,100165.75
2023-08-08T16:22:55.237Z,100169.06
2023-08-08T16:27:57.624Z,100161.03
2023-08-08T16:33:00.016Z,100180.88
2023-08-08T16:38:02.249Z,100189.19
2023-08-08T16:43:05.101Z,100149.50
2023-08-08T16:48:07.671Z,100184.22
2023-08-08T16:53:11.277Z,100199.38
2023-08-08T16:58:13.456Z,100210.63
2023-08-08T17:03:15.791Z,100197.88
2023-08-08T17:08:18.106Z,100222.34
2023-08-08T17:13:20.232Z,100219.34
2023-08-08T17:18:22.461Z,100210.59
2023-08-08T17:23:25.175Z,100229.47
2023-08-08T17:28:27.300Z,100227.84
2023-08-08T17:33:29.696Z,100201.94
2023-08-08T17:38:31.806Z,100236.50
2023-08-08T17:43:34.097Z,100235.25
2023-08-08T17:48:36.294Z,100223.72
2023-08-08T17:53:38.514Z,100268.66
2023-08-08T17:58:45.830Z,100272.94
2023-08-08T18:03:48.152Z,100267.97
2023-08-08T18:08:50.567Z,100282.09
2023-08-08T18:13:52.793Z,100284.59
2023-08-08T18:18:54.893Z,100284.38
2023-08-08T18:23:57.578Z,100300.44
2023-08-08T18:28:59.754Z,100307.19
2023-08-08T18:34:03.472Z,100325.09
2023-08-08T18:39:07.500Z,100314.06
2023-08-08T18:44:09.639Z,100328.66
2023-08-08T18:49:13.367Z,100319.88
2023-08-08T18:54:15.820Z,100324.56
2023-08-08T18:59:17.960Z,100347.44
2023-08-08T19:04:20.088Z,100341.44
2023-08-08T19:09:22.333Z,100370.91
2023-08-08T19:14:24.591Z,100355.63
2023-08-08T19:19:26.923Z,100358.94
2023-08-08T19:24:29.039Z,100371.28
2023-08-08T19:29:31.179Z,100365.47
2023-08-08T19:34:33.345Z,100346.06
2023-08-08T19:39:36.212Z,100389.56
2023-08-08T19:44:39.187Z,100391.00
2023-08-08T19:49:41.415Z,100380.63
2023-08-08T19:54:43.576Z,100360.41
2023-08-08T19:59:45.823Z,100392.16
2023-08-08T20:04:48.061Z,100384.63
2023-08-08T20:09:50.274Z,100389.69
2023-08-08T20:14:52.408Z,100393.75
2023-08-08T20:19:55.472Z,100404.28
2023-08-08T20:24:57.631Z,100391.28
2023-08-08T20:29:59.851Z,100388.50
2023-08-08T20:35:02.822Z,100406.59
2023-08-08T20:40:05.341Z,100412.59
2023-08-08T20:45:08.251Z,100402.47
2023-08-08T20:50:10.945Z,100406.50
2023-08-08T20:55:13.362Z,100393.13
2023-08-08T21:00:15.657Z,100415.31
2023-08-08T21:10:44.284Z,100412.59
2023-08-08T21:15:46.636Z,100430.19
2023-08-08T21:20:55.872Z,100424.59
2023-08-08T21:25:58.066Z,100421.84
2023-08-08T21:31:00.333Z,100404.66
2023-08-08T21:36:02.785Z,100427.13
2023-08-08T21:41:04.974Z,100438.28
2023-08-08T21:46:07.208Z,100436.34
2023-08-08T21:51:09.487Z,100413.78
2023-08-08T21:56:11.703Z,100426.66
2023-08-08T22:01:13.914Z,100415.81
2023-08-08T22:06:16.462Z,100405.47
2023-08-08T22:11:18.762Z,100413.16
2023-08-08T22:16:21.295Z,100429.13
2023-08-08T22:21:23.556Z,100410.63
2023-08-08T22:26:25.810Z,100415.28
2023-08-08T22:31:27.986Z,100413.50
2023-08-08T22:36:31.234Z,100398.81
2023-08-08T22:41:33.503Z,100377.84
2023-08-08T22:46:35.745Z,100389.66
2023-08-08T22:51:38.773Z,100379.78
2023-08-08T22:56:42.410Z,100392.44
2023-08-08T23:01:44.600Z,100398.34
2023-08-08T23:06:46.768Z,100392.31
2023-08-08T23:11:48.910Z,100392.59
2023-08-08T23:16:53.735Z,100402.50
2023-08-08T23:21:56.675Z,100397.59
2023-08-08T23:26:58.977Z,100405.72
2023-08-08T23:32:01.403Z,100393.72
2023-08-08T23:37:03.955Z,100410.09
2023-08-08T23:42:06.412Z,100408.91
2023-08-08T23:47:10.283Z,100404.84
2023-08-08T23:52:12.375Z,100399.75
2023-08-08T23:57:14.597Z,100401.84
